createdAt,value
2022-12-23T00:01:27.496Z,97523.02
2022-12-23T00:03:59.864Z,97524.98
2022-12-23T00:06:28.166Z,97520.65
2022-12-23T00:08:58.896Z,97527.03
2022-12-23T00:11:28.855Z,97523.90
2022-12-23T00:14:21.088Z,97529.11
2022-12-23T00:16:51.147Z,97529.79
2022-12-23T00:19:19.604Z,97531.19
2022-12-23T00:21:48.673Z,97530.52
2022-12-23T00:24:16.805Z,97535.61
2022-12-23T00:26:44.681Z,97535.30
2022-12-23T00:29:12.635Z,97534.09
2022-12-23T00:31:40.881Z,97535.33
2022-12-23T00:34:10.945Z,97536.92
2022-12-23T00:36:39.182Z,97543.05
2022-12-23T00:39:27.824Z,97543.11
2022-12-23T00:42:14.358Z,97543.42
2022-12-23T00:44:42.441Z,97539.96
2022-12-23T00:47:30.421Z,97550.20
2022-12-23T00:49:58.426Z,97556.44
2022-12-23T00:52:27.125Z,97553.33
2022-12-23T00:54:55.251Z,97554.38
2022-12-23T00:57:23.261Z,97552.59
2022-12-23T00:59:51.307Z,97545.81
2022-12-23T01:02:37.948Z,97544.92
2022-12-23T01:05:36.606Z,97543.45
2022-12-23T01:08:10.872Z,97536.75
2022-12-23T01:10:40.632Z,97535.89
2022-12-23T01:13:08.613Z,97539.79
2022-12-23T01:15:36.565Z,97541.39
2022-12-23T01:18:04.619Z,97537.26
2022-12-23T01:20:32.517Z,97539.85
2022-12-23T01:23:01.763Z,97539.95
2022-12-23T01:25:30.642Z,97540.25
2022-12-23T01:27:58.666Z,97536.56
2022-12-23T01:30:26.480Z,97536.69
2022-12-23T01:32:54.457Z,97537.61
2022-12-23T01:35:22.612Z,97546.72
2022-12-23T01:37:50.555Z,97550.70
2022-12-23T01:40:18.737Z,97549.60
2022-12-23T01:42:47.409Z,97549.14
2022-12-23T01:45:18.659Z,97544.59
2022-12-23T01:47:49.801Z,97543.04
2022-12-23T01:50:36.659Z,97545.48
2022-12-23T01:53:13.879Z,97544.05
2022-12-23T01:55:50.648Z,97555.88
2022-12-23T01:58:23.619Z,97552.73
2022-12-23T02:01:10.933Z,97552.81
2022-12-23T02:03:45.304Z,97549.89
2022-12-23T02:06:41.277Z,97555.64
2022-12-23T02:09:25.917Z,97561.98
2022-12-23T02:12:15.838Z,97569.82
2022-12-23T02:15:14.564Z,97572.61
2022-12-23T02:17:42.447Z,97569.35
2022-12-23T02:20:38.096Z,97579.58
2022-12-23T02:23:36.585Z,97575.54
2022-12-23T02:26:22.892Z,97576.73
2022-12-23T02:28:53.643Z,97581.20
2022-12-23T02:31:59.568Z,97581.14
2022-12-23T02:34:46.454Z,97573.57
2022-12-23T02:37:48.387Z,97573.23
2022-12-23T02:40:31.496Z,97577.36
2022-12-23T02:43:03.834Z,97578.95
2022-12-23T02:45:38.727Z,97575.41
2022-12-23T02:48:22.653Z,97571.60
2022-12-23T02:50:53.442Z,97574.89
2022-12-23T02:53:35.727Z,97571.19
2022-12-23T02:56:08.935Z,97570.85
2022-12-23T02:59:15.366Z,97572.23
2022-12-23T03:01:45.351Z,97571.70
2022-12-23T03:04:14.502Z,97572.96
2022-12-23T03:06:46.179Z,97565.59
2022-12-23T03:09:32.500Z,97572.61
2022-12-23T03:12:48.276Z,97570.66
2022-12-23T03:15:43.029Z,97569.73
2022-12-23T03:18:17.151Z,97569.35
2022-12-23T03:21:08.934Z,97567.95
2022-12-23T03:23:43.661Z,97566.77
2022-12-23T03:26:17.344Z,97558.92
2022-12-23T03:29:03.127Z,97559.34
2022-12-23T03:31:32.066Z,97556.89
2022-12-23T03:34:11.425Z,97555.30
2022-12-23T03:36:48.303Z,97554.92
2022-12-23T03:39:22.180Z,97561.46
2022-12-23T03:42:02.279Z,97565.69
2022-12-23T03:44:36.812Z,97561.73
2022-12-23T03:47:07.814Z,97562.83
2022-12-23T03:49:37.671Z,97558.18
2022-12-23T03:52:30.892Z,97562.52
2022-12-23T03:55:04.437Z,97566.13
2022-12-23T03:57:44.727Z,97565.29
2022-12-23T04:00:14.037Z,97566.56
2022-12-23T04:02:48.162Z,97567.36
2022-12-23T04:05:19.591Z,97563.55
2022-12-23T04:08:17.745Z,97558.73
2022-12-23T04:10:46.500Z,97550.76
2022-12-23T04:13:14.412Z,97548.19
2022-12-23T04:15:42.911Z,97548.10
2022-12-23T04:18:12.128Z,97549.40
2022-12-23T04:20:40.175Z,97543.54
2022-12-23T04:23:08.097Z,97542.52
2022-12-23T04:25:36.854Z,97534.41
2022-12-23T04:28:05.192Z,97523.76
2022-12-23T04:30:34.713Z,97523.73
2022-12-23T04:33:03.713Z,97521.73
2022-12-23T04:35:31.596Z,97523.16
2022-12-23T04:38:00.273Z,97520.35
2022-12-23T04:40:28.337Z,97517.33
2022-12-23T04:42:56.416Z,97516.17
2022-12-23T04:45:24.570Z,97522.65
2022-12-23T04:47:54.458Z,97525.73
2022-12-23T04:50:22.693Z,97526.23
2022-12-23T04:52:50.944Z,97525.80
2022-12-23T04:55:18.943Z,97524.55
2022-12-23T04:57:46.773Z,97522.91
2022-12-23T05:00:15.262Z,97525.74
2022-12-23T05:02:43.438Z,97525.45
2022-12-23T05:05:11.802Z,97529.72
2022-12-23T05:07:39.812Z,97528.23
2022-12-23T05:10:08.775Z,97519.17
2022-12-23T05:12:36.808Z,97523.01
2022-12-23T05:15:05.667Z,97518.80
2022-12-23T05:17:33.679Z,97518.48
2022-12-23T05:20:01.719Z,97518.02
2022-12-23T05:22:29.973Z,97522.14
2022-12-23T05:24:57.998Z,97526.64
2022-12-23T05:27:25.817Z,97528.09
2022-12-23T05:29:53.708Z,97536.34
2022-12-23T05:32:21.866Z,97528.17
2022-12-23T05:34:49.899Z,97532.51
2022-12-23T05:37:17.831Z,97527.63
2022-12-23T05:39:45.730Z,97529.55
2022-12-23T05:42:17.434Z,97524.08
2022-12-23T05:44:45.632Z,97523.52
2022-12-23T05:47:13.570Z,97521.77
2022-12-23T05:49:41.702Z,97517.41
2022-12-23T05:52:09.777Z,97513.17
2022-12-23T05:54:37.658Z,97511.64
2022-12-23T05:57:05.816Z,97516.08
2022-12-23T05:59:33.882Z,97506.05
2022-12-23T06:02:02.151Z,97506.77
2022-12-23T06:04:30.437Z,97511.10
2022-12-23T06:06:58.561Z,97509.15
2022-12-23T06:09:26.511Z,97507.70
2022-12-23T06:11:54.468Z,97507.49
2022-12-23T06:14:28.371Z,97507.73
2022-12-23T06:16:56.873Z,97501.67
2022-12-23T06:19:25.028Z,97505.20
2022-12-23T06:21:53.188Z,97504.89
2022-12-23T06:24:21.408Z,97506.96
2022-12-23T06:26:54.894Z,97515.20
2022-12-23T06:29:25.459Z,97512.34
2022-12-23T06:31:53.787Z,97507.42
2022-12-23T06:34:21.954Z,97513.13
2022-12-23T06:36:50.077Z,97510.70
2022-12-23T06:39:18.229Z,97507.03
2022-12-23T06:41:46.591Z,97513.10
2022-12-23T06:44:14.699Z,97511.80
2022-12-23T06:46:42.792Z,97514.39
2022-12-23T06:49:13.656Z,97517.52
2022-12-23T06:51:42.103Z,97518.36
2022-12-23T06:54:12.186Z,97516.64
2022-12-23T06:56:40.535Z,97520.39
2022-12-23T06:59:08.589Z,97523.83
2022-12-23T07:01:36.852Z,97526.04
2022-12-23T07:04:05.273Z,97527.39
2022-12-23T07:06:33.426Z,97526.92
2022-12-23T07:09:01.406Z,97515.00
2022-12-23T07:11:30.153Z,97524.27
2022-12-23T07:13:59.606Z,97522.38
2022-12-23T07:16:27.712Z,97522.02
2022-12-23T07:18:55.608Z,97524.89
2022-12-23T07:21:29.029Z,97533.77
2022-12-23T07:23:58.076Z,97533.98
2022-12-23T07:26:26.212Z,97531.06
2022-12-23T07:28:55.923Z,97530.19
2022-12-23T07:31:24.227Z,97534.33
2022-12-23T07:33:52.335Z,97538.52
2022-12-23T07:36:20.323Z,97540.44
2022-12-23T07:38:51.807Z,97537.27
2022-12-23T07:41:19.963Z,97538.05
2022-12-23T07:43:49.461Z,97533.87
2022-12-23T07:46:17.641Z,97530.58
2022-12-23T07:48:46.711Z,97534.50
2022-12-23T07:51:14.928Z,97534.66
2022-12-23T07:53:50.534Z,97534.19
2022-12-23T07:56:19.628Z,97527.80
2022-12-23T07:58:52.843Z,97529.54
2022-12-23T08:01:22.126Z,97522.08
2022-12-23T08:03:50.334Z,97520.99
2022-12-23T08:06:18.412Z,97518.56
2022-12-23T08:08:47.100Z,97519.38
2022-12-23T08:11:15.973Z,97520.27
2022-12-23T08:13:45.466Z,97515.05
2022-12-23T08:16:13.884Z,97516.22
2022-12-23T08:18:43.279Z,97510.84
2022-12-23T08:21:15.683Z,97508.69
2022-12-23T08:23:44.141Z,97502.86
2022-12-23T08:26:13.855Z,97487.79
2022-12-23T08:28:43.735Z,97502.00
2022-12-23T08:31:20.488Z,97499.85
2022-12-23T08:33:50.541Z,97500.23
2022-12-23T08:36:23.301Z,97499.44
2022-12-23T08:38:53.705Z,97497.90
2022-12-23T08:41:28.595Z,97497.03
2022-12-23T08:43:57.397Z,97497.97
2022-12-23T08:46:26.314Z,97497.77
2022-12-23T08:48:54.675Z,97486.92
2022-12-23T08:51:25.512Z,97485.96
2022-12-23T08:54:01.080Z,97486.19
2022-12-23T08:56:33.881Z,97486.66
2022-12-23T08:59:02.437Z,97477.60
2022-12-23T09:01:32.805Z,97478.20
2022-12-23T09:04:05.550Z,97476.04
2022-12-23T09:06:38.031Z,97472.85
2022-12-23T09:09:07.328Z,97461.98
2022-12-23T09:11:35.497Z,97468.58
2022-12-23T09:14:03.873Z,97470.05
2022-12-23T09:16:32.291Z,97466.41
2022-12-23T09:19:00.264Z,97461.05
2022-12-23T09:21:28.491Z,97465.21
2022-12-23T09:23:59.235Z,97459.60
2022-12-23T09:26:28.761Z,97451.83
2022-12-23T09:28:59.692Z,97444.55
2022-12-23T09:31:35.879Z,97442.87
2022-12-23T09:34:05.175Z,97435.72
2022-12-23T09:36:33.305Z,97435.48
2022-12-23T09:39:01.236Z,97436.16
2022-12-23T09:41:38.565Z,97428.81
2022-12-23T09:44:25.517Z,97421.92
2022-12-23T09:47:05.975Z,97423.80
2022-12-23T09:49:34.808Z,97423.59
2022-12-23T09:52:06.790Z,97424.17
2022-12-23T09:54:47.616Z,97426.15
2022-12-23T09:57:32.995Z,97424.70
2022-12-23T10:00:04.602Z,97418.28
2022-12-23T10:02:36.208Z,97418.50
2022-12-23T10:05:22.540Z,97412.64
2022-12-23T10:08:09.560Z,97403.94
2022-12-23T10:10:43.440Z,97399.59
2022-12-23T10:13:26.169Z,97402.27
2022-12-23T10:15:58.462Z,97396.16
2022-12-23T10:18:35.356Z,97396.04
2022-12-23T10:21:07.883Z,97398.73
2022-12-23T10:23:44.446Z,97405.70
2022-12-23T10:26:55.495Z,97400.95
2022-12-23T10:29:24.953Z,97401.69
2022-12-23T10:32:02.725Z,97404.61
2022-12-23T10:34:40.279Z,97402.86
2022-12-23T10:37:21.759Z,97400.45
2022-12-23T10:39:52.883Z,97400.82
2022-12-23T10:42:44.224Z,97400.45
2022-12-23T10:45:35.741Z,97400.64
2022-12-23T10:48:22.521Z,97400.35
2022-12-23T10:51:15.102Z,97400.85
2022-12-23T10:53:57.179Z,97404.07
2022-12-23T10:56:25.697Z,97400.13
2022-12-23T10:58:59.460Z,97397.67
2022-12-23T11:01:31.052Z,97396.02
2022-12-23T11:04:17.094Z,97397.67
2022-12-23T11:07:10.557Z,97394.66
2022-12-23T11:09:43.838Z,97396.88
2022-12-23T11:12:12.841Z,97398.80
2022-12-23T11:14:50.044Z,97401.86
2022-12-23T11:17:24.883Z,97400.03
2022-12-23T11:20:11.374Z,97401.59
2022-12-23T11:22:53.383Z,97402.24
2022-12-23T11:25:38.514Z,97401.96
2022-12-23T11:28:15.661Z,97398.03
2022-12-23T11:31:09.777Z,97401.05
2022-12-23T11:33:40.107Z,97403.88
2022-12-23T11:36:14.681Z,97405.40
2022-12-23T11:38:51.874Z,97403.95
2022-12-23T11:41:25.967Z,97398.90
2022-12-23T11:44:01.704Z,97404.93
2022-12-23T11:46:32.907Z,97400.90
2022-12-23T11:49:18.574Z,97397.58
2022-12-23T11:52:14.016Z,97394.73
2022-12-23T11:54:54.363Z,97391.93
2022-12-23T11:57:28.715Z,97389.60
2022-12-23T11:59:58.343Z,97394.44
2022-12-23T12:02:58.883Z,97396.26
2022-12-23T12:05:35.530Z,97398.25
2022-12-23T12:08:15.913Z,97402.70
2022-12-23T12:10:44.397Z,97402.89
2022-12-23T12:13:44.861Z,97399.34
2022-12-23T12:16:31.554Z,97404.02
2022-12-23T12:19:15.204Z,97402.55
2022-12-23T12:21:44.919Z,97398.42
2022-12-23T12:24:22.939Z,97402.50
2022-12-23T12:27:02.778Z,97405.06
2022-12-23T12:29:56.170Z,97400.29
2022-12-23T12:32:50.797Z,97395.80
2022-12-23T12:35:27.343Z,97395.70
2022-12-23T12:38:12.404Z,97402.98
2022-12-23T12:40:47.770Z,97401.52
2022-12-23T12:43:19.104Z,97402.69
2022-12-23T12:45:59.697Z,97403.84
2022-12-23T12:49:04.798Z,97406.85
2022-12-23T12:51:40.891Z,97405.23
2022-12-23T12:54:32.132Z,97401.55
2022-12-23T12:57:02.552Z,97407.15
2022-12-23T12:59:38.137Z,97411.52
2022-12-23T13:02:25.380Z,97416.98
2022-12-23T13:05:16.149Z,97418.77
2022-12-23T13:07:45.225Z,97419.76
2022-12-23T13:10:20.685Z,97416.33
2022-12-23T13:13:01.884Z,97421.40
2022-12-23T13:15:44.667Z,97423.45
2022-12-23T13:18:34.628Z,97424.37
2022-12-23T13:21:23.363Z,97429.14
2022-12-23T13:24:15.532Z,97431.09
2022-12-23T13:27:07.642Z,97433.31
2022-12-23T13:29:43.531Z,97426.63
2022-12-23T13:32:23.071Z,97436.17
2022-12-23T13:35:09.535Z,97443.58
2022-12-23T13:38:15.202Z,97447.90
2022-12-23T13:41:18.836Z,97443.58
2022-12-23T13:43:55.830Z,97445.69
2022-12-23T13:47:14.519Z,97447.55
2022-12-23T13:49:53.187Z,97449.94
2022-12-23T13:52:40.313Z,97452.16
2022-12-23T13:55:21.702Z,97454.80
2022-12-23T13:57:59.738Z,97457.05
2022-12-23T14:00:30.993Z,97454.94
2022-12-23T14:03:02.189Z,97454.79
2022-12-23T14:05:39.678Z,97453.08
2022-12-23T14:08:20.041Z,97450.20
2022-12-23T14:11:13.017Z,97447.16
2022-12-23T14:13:43.861Z,97447.61
2022-12-23T14:16:34.882Z,97447.61
2022-12-23T14:19:37.124Z,97457.42
2022-12-23T14:22:05.374Z,97461.81
2022-12-23T14:24:45.771Z,97462.17
2022-12-23T14:27:21.871Z,97462.12
2022-12-23T14:30:10.118Z,97461.96
2022-12-23T14:32:47.161Z,97458.17
2022-12-23T14:35:35.410Z,97460.20
2022-12-23T14:38:08.221Z,97463.23
2022-12-23T14:40:39.462Z,97460.40
2022-12-23T14:43:26.850Z,97458.37
2022-12-23T14:46:00.665Z,97457.96
2022-12-23T14:48:47.968Z,97461.14
2022-12-23T14:51:23.438Z,97463.55
2022-12-23T14:53:52.251Z,97470.29
2022-12-23T14:56:31.811Z,97466.60
2022-12-23T14:59:08.422Z,97462.75
2022-12-23T15:01:39.552Z,97462.11
2022-12-23T15:04:12.336Z,97457.00
2022-12-23T15:06:47.275Z,97456.61
2022-12-23T15:09:21.085Z,97463.34
2022-12-23T15:11:49.837Z,97470.21
2022-12-23T15:14:43.303Z,97471.27
2022-12-23T15:17:28.541Z,97473.25
2022-12-23T15:20:24.338Z,97470.76
2022-12-23T15:22:52.807Z,97475.64
2022-12-23T15:25:24.872Z,97477.18
2022-12-23T15:28:01.294Z,97478.13
2022-12-23T15:30:32.628Z,97477.20
2022-12-23T15:33:03.288Z,97474.41
2022-12-23T15:35:34.762Z,97472.86
2022-12-23T15:38:03.295Z,97474.41
2022-12-23T15:40:36.885Z,97476.33
2022-12-23T15:43:17.916Z,97473.23
2022-12-23T15:45:46.277Z,97468.99
2022-12-23T15:48:27.538Z,97471.54
2022-12-23T15:50:58.087Z,97465.79
2022-12-23T15:53:30.221Z,97465.45
2022-12-23T15:56:00.433Z,97468.24
2022-12-23T15:58:29.122Z,97476.17
2022-12-23T16:01:00.683Z,97470.82
2022-12-23T16:03:40.656Z,97467.38
2022-12-23T16:06:39.231Z,97469.04
2022-12-23T16:09:26.043Z,97477.30
2022-12-23T16:11:54.089Z,97481.30
2022-12-23T16:14:31.253Z,97478.85
2022-12-23T16:17:19.627Z,97472.38
2022-12-23T16:19:50.433Z,97461.77
2022-12-23T16:22:35.754Z,97461.21
2022-12-23T16:25:09.828Z,97458.21
2022-12-23T16:27:40.457Z,97455.21
2022-12-23T16:30:20.777Z,97451.20
2022-12-23T16:32:50.893Z,97453.04
2022-12-23T16:35:30.593Z,97455.96
2022-12-23T16:38:24.141Z,97455.95
2022-12-23T16:41:00.121Z,97459.67
2022-12-23T16:43:38.070Z,97459.08
2022-12-23T16:46:09.037Z,97456.58
2022-12-23T16:48:51.103Z,97447.75
2022-12-23T16:51:20.358Z,97446.85
2022-12-23T16:53:50.221Z,97442.96
2022-12-23T16:56:20.599Z,97438.05
2022-12-23T16:58:48.979Z,97445.54
2022-12-23T17:01:26.172Z,97444.42
2022-12-23T17:03:56.078Z,97445.05
2022-12-23T17:06:27.098Z,97438.48
2022-12-23T17:08:58.602Z,97444.80
2022-12-23T17:11:47.114Z,97443.84
2022-12-23T17:14:17.087Z,97443.02
2022-12-23T17:16:46.182Z,97449.88
2022-12-23T17:19:14.367Z,97450.23
2022-12-23T17:21:44.707Z,97446.05
2022-12-23T17:24:18.831Z,97448.16
2022-12-23T17:26:46.826Z,97450.79
2022-12-23T17:29:14.722Z,97454.30
2022-12-23T17:31:43.429Z,97453.84
2022-12-23T17:34:17.365Z,97463.34
2022-12-23T17:36:49.962Z,97472.59
2022-12-23T17:39:22.318Z,97474.04
2022-12-23T17:41:50.614Z,97471.66
2022-12-23T17:44:19.115Z,97472.33
2022-12-23T17:46:47.425Z,97474.70
2022-12-23T17:49:15.591Z,97475.67
2022-12-23T17:51:43.901Z,97480.39
2022-12-23T17:54:25.316Z,97481.11
2022-12-23T17:56:53.387Z,97481.15
2022-12-23T17:59:21.826Z,97481.48
2022-12-23T18:01:50.237Z,97485.31
2022-12-23T18:04:18.886Z,97477.22
2022-12-23T18:06:47.008Z,97473.54
2022-12-23T18:09:15.518Z,97476.54
2022-12-23T18:11:45.634Z,97478.08
2022-12-23T18:14:18.538Z,97480.56
2022-12-23T18:16:46.843Z,97482.44
2022-12-23T18:19:20.599Z,97482.70
2022-12-23T18:21:49.229Z,97474.74
2022-12-23T18:24:18.412Z,97486.26
2022-12-23T18:26:47.391Z,97486.67
2022-12-23T18:29:15.430Z,97482.04
2022-12-23T18:31:51.528Z,97486.77
2022-12-23T18:34:20.525Z,97485.98
2022-12-23T18:36:49.137Z,97486.33
2022-12-23T18:39:18.024Z,97488.85
2022-12-23T18:41:46.165Z,97491.97
2022-12-23T18:44:21.741Z,97484.05
2022-12-23T18:46:50.627Z,97484.59
2022-12-23T18:49:18.782Z,97487.81
2022-12-23T18:51:47.365Z,97487.55
2022-12-23T18:54:17.191Z,97484.95
2022-12-23T18:56:45.333Z,97483.12
2022-12-23T18:59:18.564Z,97481.88
2022-12-23T19:01:48.269Z,97484.34
2022-12-23T19:04:16.313Z,97484.15
2022-12-23T19:06:45.154Z,97487.45
2022-12-23T19:09:22.326Z,97489.20
2022-12-23T19:11:52.429Z,97484.73
2022-12-23T19:14:20.679Z,97486.04
2022-12-23T19:16:51.932Z,97486.76
2022-12-23T19:19:22.057Z,97485.97
2022-12-23T19:21:50.030Z,97490.65
2022-12-23T19:24:18.275Z,97488.84
2022-12-23T19:26:46.276Z,97489.12
2022-12-23T19:29:14.205Z,97488.96
2022-12-23T19:31:42.004Z,97486.27
2022-12-23T19:34:15.067Z,97482.82
2022-12-23T19:36:44.190Z,97480.73
2022-12-23T19:39:16.587Z,97477.03
2022-12-23T19:41:45.410Z,97478.14
2022-12-23T19:44:14.176Z,97479.21
2022-12-23T19:46:42.467Z,97471.61
2022-12-23T19:49:17.429Z,97474.14
2022-12-23T19:51:49.036Z,97485.38
2022-12-23T19:54:18.624Z,97489.45
2022-12-23T19:56:49.658Z,97493.84
2022-12-23T19:59:17.625Z,97485.45
2022-12-23T20:01:46.049Z,97492.27
2022-12-23T20:04:14.128Z,97492.18
2022-12-23T20:06:42.685Z,97487.56
2022-12-23T20:09:13.157Z,97479.36
2022-12-23T20:11:44.286Z,97472.40
2022-12-23T20:14:14.248Z,97467.65
2022-12-23T20:16:42.462Z,97457.02
2022-12-23T20:19:10.903Z,97441.97
2022-12-23T20:21:38.717Z,97438.66
2022-12-23T20:24:07.311Z,97445.95
2022-12-23T20:26:35.437Z,97442.85
2022-12-23T20:29:03.384Z,97439.91
2022-12-23T20:31:33.907Z,97433.31
2022-12-23T20:34:02.619Z,97427.52
2022-12-23T20:36:33.708Z,97432.65
2022-12-23T20:39:03.592Z,97424.77
2022-12-23T20:41:32.411Z,97416.87
2022-12-23T20:46:48.976Z,97418.90
2022-12-23T20:49:17.157Z,97416.27
2022-12-23T20:51:44.873Z,97425.00
2022-12-23T20:54:12.895Z,97424.81
2022-12-23T20:56:41.357Z,97422.30
2022-12-23T20:59:09.241Z,97419.89
2022-12-23T21:01:39.240Z,97414.81
2022-12-23T21:04:13.239Z,97411.71
2022-12-23T21:06:41.854Z,97410.74
2022-12-23T21:09:12.382Z,97414.61
2022-12-23T21:11:43.444Z,97408.85
2022-12-23T21:14:12.184Z,97411.52
2022-12-23T21:16:40.432Z,97411.73
2022-12-23T21:19:13.199Z,97409.92
2022-12-23T21:21:41.060Z,97415.94
2022-12-23T21:24:10.246Z,97412.45
2022-12-23T21:26:38.935Z,97404.47
2022-12-23T21:29:09.480Z,97401.82
2022-12-23T21:31:39.747Z,97398.53
2022-12-23T21:34:08.349Z,97404.13
2022-12-23T21:36:38.862Z,97412.75
2022-12-23T21:39:08.794Z,97413.30
2022-12-23T21:41:39.503Z,97407.35
2022-12-23T21:44:08.390Z,97405.52
2022-12-23T21:46:36.215Z,97403.66
2022-12-23T21:49:04.238Z,97402.93
2022-12-23T21:51:39.630Z,97399.52
2022-12-23T21:54:10.417Z,97403.85
2022-12-23T21:56:39.045Z,97404.64
2022-12-23T21:59:10.194Z,97406.54
2022-12-23T22:01:38.830Z,97401.60
2022-12-23T22:04:06.891Z,97405.55
2022-12-23T22:06:39.426Z,97404.48
2022-12-23T22:09:08.138Z,97406.25
2022-12-23T22:11:37.319Z,97399.08
2022-12-23T22:14:07.894Z,97395.68
2022-12-23T22:16:36.752Z,97391.62
2022-12-23T22:19:06.499Z,97388.23
2022-12-23T22:21:36.096Z,97390.33
2022-12-23T22:24:07.020Z,97387.34
2022-12-23T22:26:35.923Z,97390.32
2022-12-23T22:29:06.622Z,97389.98
2022-12-23T22:31:40.072Z,97386.69
2022-12-23T22:34:12.017Z,97385.15
2022-12-23T22:36:40.082Z,97386.52
2022-12-23T22:39:08.311Z,97384.45
2022-12-23T22:41:36.554Z,97381.65
2022-12-23T22:44:04.885Z,97377.17
2022-12-23T22:46:33.367Z,97383.95
2022-12-23T22:49:01.401Z,97385.29
2022-12-23T22:51:31.181Z,97379.09
2022-12-23T22:54:01.876Z,97378.36
2022-12-23T22:56:30.068Z,97378.70
2022-12-23T22:58:58.625Z,97379.67
2022-12-23T23:01:28.721Z,97380.77
2022-12-23T23:03:57.821Z,97379.68
2022-12-23T23:06:31.346Z,97381.81
2022-12-23T23:08:59.902Z,97381.05
2022-12-23T23:11:28.466Z,97382.76
2022-12-23T23:13:57.849Z,97381.95
2022-12-23T23:16:26.519Z,97376.40
2022-12-23T23:18:54.719Z,97368.54
2022-12-23T23:21:23.213Z,97360.61
2022-12-23T23:23:51.283Z,97358.23
2022-12-23T23:26:20.438Z,97351.89
2022-12-23T23:28:49.008Z,97354.94
2022-12-23T23:31:41.471Z,97350.63
2022-12-23T23:34:05.550Z,97351.39
2022-12-23T23:36:33.693Z,97347.30
2022-12-23T23:39:01.752Z,97344.73
2022-12-23T23:41:29.963Z,97342.33
2022-12-23T23:43:57.885Z,97336.10
2022-12-23T23:46:26.164Z,97343.59
2022-12-23T23:48:54.264Z,97333.13
2022-12-23T23:51:22.282Z,97329.91
2022-12-23T23:53:50.446Z,97327.72
2022-12-23T23:56:24.844Z,97325.24
2022-12-23T23:58:53.694Z,97321.05
